Accueil
METAR-TAF:

METAR-TAF

Aéroports :

Aéroport international Jinnah

Karâchi, Pakistan

latitude: 24-54N, longitude: 067-08E, altitude: 21 m

Observation

Le bulletin a été fait il y a 30 minutes, à 06:55 UTC
Vent 8 kt de nord-est
Température 23°C
Humidité 27%
Pression 1024 hPa
Visibilité: 5000 m
brume sèche

METAR: OPKC 140655Z 05008KT 5000 HZ NSC 23/03 Q1024 NOSIG

Heure: 12:25 (07:25 UTC)

Prévision

Le bulletin a été fait il y a 3 heures et 25 minutes, à 04:00 UTC
Prévision valable du 14 à 06 UTC au 15 à 12 UTC
Vent 10 kt de est/nord-est avec des rafales jusqu'à 20 kt
Visibilité: 6000 m
Evoluant progressivement
du 14 à 18 UTC au 14 à 20 UTC
Vent 15 kt de est/nord-est avec des rafales jusqu'à 15 kt
Visibilité: 4000 m
brume sèche

TAF: OPKC 140400Z 1406/1512 06010G20KT 6000 NSC BECMG 1418/1420 07015G15KT 4000 HZ NSC

Observations et prévisions météorologiques de plus de 4000 aéroports (messages METAR et TAF).

Les stations disponibles sont représentées par des disques jaunes et rouges sur la carte.

Passer la souris dessus pour voir le nom de la station.

Cliquer dessus pour voir les observations et prévisions météorologiques.

Pour changer de carte: cliquez sur les boutons verts avec une croix noire pour zoomer, sur le bouton vert avec un tiret pour effectuer un zoom arrière, ou sur les flèches vertes pour les cartes adjacentes.


METAR-TAF: